Meteorología y climatología de Navarra
Datos de la estación - Meteo Navarra

Estación de Gorramendi GN

Altitud 1071 m.


Datos desde el 30/06/2020 hasta el 01/07/2020 en horario solar
Los datos son PROVISIONALES

Anterior Página 1 de 1 Siguiente Descargar: Formato para Excel 2000 o superior   Formato csv   Formato para OpenOffice Calc
Fecha Temperatura Humedad relativa Radiación global Insolación Precipitación Vel. viento 10 m Vel. viento 10 m Dir. viento 10 m
ºC % W/m² s l/m² m/s km/h º
30/06/2020 0:00 10.7 99 0.0 0 0.0 4.1 14.6 124
30/06/2020 0:10 10.7 99 0.0 0 0.0 3.3 12.0 119
30/06/2020 0:20 10.6 99 0.0 0 0.0 2.5 9.0 125
30/06/2020 0:30 10.4 99 0.0 0 0.0 2.6 9.4 117
30/06/2020 0:40 10.1 99 0.0 0 0.0 1.9 6.9 130
30/06/2020 0:50 9.6 98 0.0 0 0.0 0.4 1.4 117
30/06/2020 1:00 10.0 99 0.0 0 0.0 0.6 2.3 51
30/06/2020 1:10 10.2 99 0.0 0 0.0 1.3 4.8 36
30/06/2020 1:20 10.0 99 0.0 0 0.0 2.3 8.4 54
30/06/2020 1:30 10.4 96 0.0 0 0.0 3.1 11.2 20
30/06/2020 1:40 11.1 94 0.0 0 0.0 3.0 10.8 16
30/06/2020 1:50 11.3 88 0.0 0 0.0 3.2 11.4 18
30/06/2020 2:00 11.6 85 0.0 0 0.0 3.0 10.7 29
30/06/2020 2:10 11.5 86 0.0 0 0.0 2.8 10.1 28
30/06/2020 2:20 11.7 81 0.0 0 0.0 3.0 10.8 40
30/06/2020 2:30 11.4 88 0.0 0 0.0 2.8 10.2 20
30/06/2020 2:40 10.8 94 0.0 0 0.0 3.3 12.0 32
30/06/2020 2:50 11.3 86 0.0 0 0.0 3.5 12.5 47
30/06/2020 3:00 10.9 90 0.0 0 0.0 3.2 11.6 43
30/06/2020 3:10 10.8 92 0.0 0 0.0 2.3 8.2 51
30/06/2020 3:20 10.3 95 0.0 0 0.0 2.4 8.7 70
30/06/2020 3:30 10.3 97 0.0 0 0.0 3.2 11.7 46
30/06/2020 3:40 10.7 94 0.0 0 0.0 3.4 12.2 51
30/06/2020 3:50 10.4 95 0.0 0 0.0 3.9 14.0 57
30/06/2020 4:00 10.3 96 0.0 0 0.0 3.9 14.0 55
30/06/2020 4:10 10.2 96 0.0 0 0.0 3.6 12.9 74
30/06/2020 4:20 9.9 97 0.0 0 0.1 3.6 13.0 89
30/06/2020 4:30 9.9 98 0.0 0 0.0 3.7 13.3 83
30/06/2020 4:40 9.8 98 0.1 0 0.0 3.8 13.6 97
30/06/2020 4:50 9.9 98 23.4 168 0.0 3.0 10.9 94
30/06/2020 5:00 10.1 98 55.6 600 0.0 3.1 11.2 69
30/06/2020 5:10 10.9 90 77.8 600 0.0 3.3 11.7 49
30/06/2020 5:20 11.7 79 102.3 600 0.0 3.3 11.9 52
30/06/2020 5:30 12.7 66 130.8 600 0.0 3.0 10.7 40
30/06/2020 5:40 13.3 57 162.2 600 0.0 2.9 10.3 45
30/06/2020 5:50 13.5 57 190.7 600 0.0 2.7 9.9 45
30/06/2020 6:00 13.8 52 220.4 600 0.0 2.5 9.0 52
30/06/2020 6:10 14.1 46 252.0 600 0.0 2.5 9.1 48
30/06/2020 6:20 14.3 38 283.2 600 0.0 2.2 8.1 47
30/06/2020 6:30 14.9 22 316.9 600 0.0 2.6 9.4 46
30/06/2020 6:40 15.1 21 350.0 600 0.0 2.5 8.9 45
30/06/2020 6:50 15.3 18 384.5 600 0.0 2.6 9.2 42
30/06/2020 7:00 15.4 17 414.7 600 0.0 2.0 7.1 52
30/06/2020 7:10 16.0 28 444.8 600 0.0 1.2 4.4 87
30/06/2020 7:20 15.6 65 477.3 600 0.0 1.3 4.7 119
30/06/2020 7:30 16.2 60 510.6 600 0.0 1.1 4.1 141
30/06/2020 7:40 15.7 62 543.1 600 0.0 0.9 3.2 160
30/06/2020 7:50 17.1 29 573.8 600 0.0 0.3 1.0 187
30/06/2020 8:00 17.5 43 608.9 600 0.0 1.1 4.0 172
30/06/2020 8:10 17.6 28 616.7 600 0.0 0.4 1.3 205
30/06/2020 8:20 18.1 24 666.2 600 0.0 1.0 3.5 202
30/06/2020 8:30 17.4 44 683.8 600 0.0 1.4 5.0 186
30/06/2020 8:40 17.3 45 711.9 600 0.0 1.2 4.2 200
30/06/2020 8:50 17.2 48 738.2 600 0.0 2.3 8.4 191
30/06/2020 9:00 17.0 41 763.7 600 0.0 2.3 8.1 203
30/06/2020 9:10 17.3 39 788.1 600 0.0 2.0 7.0 201
30/06/2020 9:20 17.3 52 802.0 600 0.0 2.0 7.2 190
30/06/2020 9:30 17.2 68 762.2 600 0.0 2.0 7.1 200
30/06/2020 9:40 17.6 31 842.0 600 0.0 2.1 7.7 217
30/06/2020 9:50 17.9 27 869.0 600 0.0 1.7 6.1 230
30/06/2020 10:00 17.8 43 888.0 600 0.0 1.4 5.1 254
30/06/2020 10:10 17.6 56 904.0 600 0.0 1.0 3.7 251
30/06/2020 10:20 17.5 43 920.0 600 0.0 1.6 5.7 242
30/06/2020 10:30 17.7 42 935.0 600 0.0 1.5 5.3 225
30/06/2020 10:40 17.9 44 949.0 600 0.0 1.3 4.5 210
30/06/2020 10:50 18.3 52 959.0 600 0.0 1.2 4.4 181
30/06/2020 11:00 18.6 57 968.0 600 0.0 1.0 3.7 180
30/06/2020 11:10 18.9 66 975.0 600 0.0 1.0 3.6 245
30/06/2020 11:20 18.8 68 981.0 600 0.0 1.1 4.0 228
30/06/2020 11:30 19.2 70 988.0 600 0.0 1.4 4.9 258
30/06/2020 11:40 19.0 73 991.0 600 0.0 0.9 3.3 328
30/06/2020 11:50 19.2 74 992.0 600 0.0 0.7 2.7 189
30/06/2020 12:00 19.1 76 994.0 600 0.0 1.4 5.0 135
30/06/2020 12:10 19.1 77 995.0 600 0.0 2.4 8.5 131
30/06/2020 12:20 18.7 79 990.0 600 0.0 1.7 5.9 26
30/06/2020 12:30 18.3 80 987.0 600 0.0 1.0 3.5 45
30/06/2020 12:40 18.4 81 982.0 600 0.0 1.7 6.3 47
30/06/2020 12:50 18.0 82 976.0 600 0.0 2.9 10.6 39
30/06/2020 13:00 17.7 84 969.0 600 0.0 3.2 11.5 32
30/06/2020 13:10 18.0 84 959.0 600 0.0 2.5 9.1 47
30/06/2020 13:20 18.2 83 948.0 600 0.0 2.8 9.9 40
30/06/2020 13:30 18.3 84 937.0 600 0.0 3.2 11.4 44
30/06/2020 13:40 18.4 83 920.0 600 0.0 1.7 6.0 53
30/06/2020 13:50 18.4 83 905.0 600 0.0 2.4 8.5 40
30/06/2020 14:00 18.3 83 888.0 600 0.0 1.9 6.9 45
30/06/2020 14:10 18.5 83 872.0 600 0.0 2.0 7.3 33
30/06/2020 14:20 18.7 82 854.0 600 0.0 2.3 8.4 37
30/06/2020 14:30 18.8 83 834.0 600 0.0 1.4 5.0 72
30/06/2020 14:40 19.1 81 808.0 600 0.0 1.5 5.5 54
30/06/2020 14:50 19.2 81 784.8 600 0.0 1.0 3.4 89
30/06/2020 15:00 19.3 79 762.6 600 0.0 1.7 6.3 59
30/06/2020 15:10 18.9 82 736.8 600 0.0 2.0 7.3 113
30/06/2020 15:20 19.2 80 712.5 600 0.0 1.9 6.7 135
30/06/2020 15:30 18.8 81 685.6 600 0.0 2.9 10.3 129
30/06/2020 15:40 19.0 81 660.6 600 0.0 2.6 9.5 126
30/06/2020 15:50 19.3 79 634.8 600 0.0 1.9 6.9 92
30/06/2020 16:00 19.0 79 604.0 600 0.0 2.4 8.6 113
30/06/2020 16:10 19.1 79 578.1 600 0.0 2.0 7.3 97
30/06/2020 16:20 18.8 79 548.9 600 0.0 2.0 7.2 107
30/06/2020 16:30 18.7 78 520.3 600 0.0 2.5 9.0 111
30/06/2020 16:40 18.5 78 487.1 600 0.0 1.9 6.8 59
30/06/2020 16:50 18.7 77 453.6 600 0.0 1.6 5.8 39
30/06/2020 17:00 18.7 76 424.8 600 0.0 2.0 7.1 86
30/06/2020 17:10 18.6 77 392.8 600 0.0 2.8 9.9 70
30/06/2020 17:20 18.7 75 364.7 600 0.0 3.3 11.7 47
30/06/2020 17:30 18.2 77 334.1 600 0.0 2.9 10.4 94
30/06/2020 17:40 18.1 78 300.7 600 0.0 2.9 10.5 107
30/06/2020 17:50 17.8 78 271.6 600 0.0 4.1 14.6 119
30/06/2020 18:00 17.6 77 245.2 600 0.0 3.7 13.1 116
30/06/2020 18:10 17.7 77 159.5 260 0.0 3.9 14.0 122
30/06/2020 18:20 17.3 77 104.8 0 0.0 4.0 14.5 123
30/06/2020 18:30 17.3 77 139.4 380 0.0 4.9 17.5 132
30/06/2020 18:40 17.3 77 110.0 204 0.0 5.3 19.0 131
30/06/2020 18:50 17.2 78 101.3 306 0.0 4.6 16.6 119
30/06/2020 19:00 17.4 79 80.2 302 0.0 4.5 16.2 106
30/06/2020 19:10 17.9 79 95.4 600 0.0 2.6 9.2 100
30/06/2020 19:20 18.1 77 59.5 600 0.0 2.3 8.4 109
30/06/2020 19:30 17.4 76 32.8 314 0.0 4.6 16.5 124
30/06/2020 19:40 17.3 77 5.5 0 0.0 4.0 14.3 130
30/06/2020 19:50 17.2 78 0.0 0 0.0 4.0 14.2 164
30/06/2020 20:00 17.4 76 0.0 0 0.2 5.0 18.0 161
30/06/2020 20:10 17.5 79 0.0 0 0.0 3.0 10.9 160
30/06/2020 20:20 18.9 78 0.0 0 0.4 1.9 6.9 165
30/06/2020 20:30 19.4 75 0.0 0 0.0 1.5 5.5 71
30/06/2020 20:40 20.3 71 0.0 0 0.0 1.1 3.8 117
30/06/2020 20:50 20.6 70 0.0 0 0.0 1.9 7.0 157
30/06/2020 21:00 18.0 76 0.0 0 0.0 3.4 12.1 116
30/06/2020 21:10 17.5 77 0.0 0 0.0 2.7 9.8 127
30/06/2020 21:20 18.1 75 0.0 0 0.0 2.8 10.1 112
30/06/2020 21:30 18.3 75 0.0 0 0.0 2.6 9.3 112
30/06/2020 21:40 17.8 76 0.0 0 0.0 3.8 13.8 104
30/06/2020 21:50 17.7 78 0.0 0 0.0 3.1 11.2 127
30/06/2020 22:00 17.8 76 0.0 0 0.0 2.4 8.7 134
30/06/2020 22:10 17.3 78 0.0 0 0.0 5.4 19.3 149
30/06/2020 22:20 16.9 78 0.0 0 0.0 6.2 22.2 143
30/06/2020 22:30 17.2 78 0.0 0 0.0 5.6 20.2 140
30/06/2020 22:40 18.1 76 0.0 0 0.0 5.7 20.7 152
30/06/2020 22:50 18.1 76 0.0 0 0.0 4.4 15.9 156
30/06/2020 23:00 18.7 77 0.0 0 0.0 3.8 13.6 158
30/06/2020 23:10 18.6 76 0.0 0 0.0 3.9 13.9 160
30/06/2020 23:20 18.4 78 0.0 0 0.0 4.3 15.4 178
30/06/2020 23:30 19.2 76 0.0 0 0.0 4.3 15.5 178
30/06/2020 23:40 19.5 74 0.0 0 0.0 4.2 14.9 173
30/06/2020 23:50 18.4 77 0.0 0 0.0 2.9 10.5 150
Anterior Página 1 de 1 Siguiente
Los datos de precipitación registrados en estaciones que están en cumbres son inferiores a lo real, como consecuencia del efecto del viento y de la nieve.


NOTA: Tipo de datos según el color:
   - Valores diarios o 10 minutos correctos
   - Valores diarios calculados a partir de un número de datos 10 minutos menor que 144 y mayor que 120, o de un número de datos semihorarios menor que 48 y mayor que 40 (caso de las estaciones de INTIA y del Ministerio)
   - Valores diez minutos estimados


Contacto        Enlaces        Aviso legal